Terminal Aerodrome Forecast
Issued by NWS

Home | Current Version | Previous Version | Text Only | Print | Product List | Glossary On
Versions: 1 2 3 4 5 6 7 8 9 10 11 12 13 14 15 16 17 18 19 20 21 22
000
FTUS41 KGYX 300927 AAA
TAFRKD
TAF AMD
KRKD 300927Z 3009/3106 10005KT 4SM -SN BR OVC015
     FM301000 12004KT 1 1/2SM -SN BR OVC015
     FM301200 12006KT 3/4SM -SN BR OVC007
     FM301500 12008KT 1/2SM SN OVC004
      AMD LTD TO CLD VIS AND WIND=

USA.gov is the U.S. government's official web portal to all federal, state and local government web resources and services.